Дата Пункты Температура Давл., мм. Влажн., % Ветер Погодные явления
Воздуха Воды Направл. Скорость
31.01.18 08:00 Одесса 1.0 3.0 762 70 З 2 08 ЧАСОВ
31.01.18 02:00 Одесса 2.0 3.0 761 68 З 3 02 ЧАСА
30.01.18 11:00 Одесса 3.0 3.0 761 68 З 3 23 ЧАСА
30.01.18 08:00 Одесса 4.0 3.0 760 67 З 3 20 ЧАСОВ
30.01.18 05:00 Одесса 7.0 2.0 758 64 С-З 7 17 ЧАСОВ
30.01.18 02:00 Одесса 8.0 2.0 756 67 З 3 14 ЧАСОВ
30.01.18 11:00 Одесса 7.0 2.0 756 71 З 3 11 ЧАСОВ
30.01.18 08:00 Одесса 3.0 2.0 757 85 З 2 08 ЧАСОВ
30.01.18 05:00 Одесса 3.0 1.0 758 85 З 3 05 ЧАСОВ
30.01.18 02:00 Одесса 4.0 1.0 760 81 З 4 02 ЧАСА
29.01.18 11:00 Одесса 4.0 1.0 761 79 З 3 23 ЧАСА
29.01.18 08:00 Одесса 3.0 1.0 762 79 З 2 20 ЧАСОВ
29.01.18 05:00 Одесса 5.0 1.0 762 73 З 2 17 ЧАСОВ
29.01.18 02:00 Одесса 6.0 1.0 763 72 З 2 14 ЧАСОВ
29.01.18 11:00 Одесса 3.0 1.0 764 78 З 2 11 ЧАСОВ
29.01.18 08:00 Одесса 2.0 1.0 764 83 З 3 08 ЧАСОВ
29.01.18 02:00 Одесса -1.0 1.0 765 87 З 4 02 ЧАСА
28.01.18 11:00 Одесса 1.0 1.0 766 83 З 3 23 ЧАСА
28.01.18 08:00 Одесса 1.0 1.0 767 87 Ю-З 3 20 ЧАСОВ
28.01.18 05:00 Одесса -1.0 1.0 769 89 Ю 1 17 ЧАСОВ
Количество строк
1 2 3 4 5 6 7 8 9 10
Page 8 of 330